createdAt,value
2017-02-27T00:00:26.636Z,1007.39
2017-02-27T00:01:35.519Z,1007.38
2017-02-27T00:02:44.424Z,1007.37
2017-02-27T00:03:53.309Z,1007.39
2017-02-27T00:05:02.193Z,1007.37
2017-02-27T00:06:11.078Z,1007.35
2017-02-27T00:07:19.964Z,1007.36
2017-02-27T00:08:28.858Z,1007.37
2017-02-27T00:09:37.784Z,1007.38
2017-02-27T00:10:46.679Z,1007.39
2017-02-27T00:11:55.593Z,1007.38
2017-02-27T00:13:04.503Z,1007.39
2017-02-27T00:14:13.399Z,1007.37
2017-02-27T00:15:22.315Z,1007.37
2017-02-27T00:16:31.198Z,1007.38
2017-02-27T00:17:40.128Z,1007.37
2017-02-27T00:18:49.026Z,1007.4
2017-02-27T00:19:57.913Z,1007.4
2017-02-27T00:21:06.796Z,1007.4
2017-02-27T00:22:15.731Z,1007.41
2017-02-27T00:23:24.633Z,1007.34
2017-02-27T00:24:33.546Z,1007.4
2017-02-27T00:25:42.432Z,1007.37
2017-02-27T00:26:51.332Z,1007.43
2017-02-27T00:28:00.217Z,1007.38
2017-02-27T00:29:09.134Z,1007.4
2017-02-27T00:30:18.040Z,1007.39
2017-02-27T00:31:26.916Z,1007.38
2017-02-27T00:32:35.828Z,1007.38
2017-02-27T00:33:44.864Z,1007.37
2017-02-27T00:34:53.800Z,1007.38
2017-02-27T00:36:03.098Z,1007.39
2017-02-27T00:37:12.410Z,1007.34
2017-02-27T00:38:21.311Z,1007.35
2017-02-27T00:39:30.237Z,1007.33
2017-02-27T00:40:39.130Z,1007.29
2017-02-27T00:41:48.024Z,1007.35
2017-02-27T00:42:56.928Z,1007.35
2017-02-27T00:44:06.245Z,1007.36
2017-02-27T00:45:15.119Z,1007.36
2017-02-27T00:46:24.008Z,1007.34
2017-02-27T00:47:32.898Z,1007.32
2017-02-27T00:48:41.779Z,1007.36
2017-02-27T00:49:50.668Z,1007.37
2017-02-27T00:50:59.546Z,1007.35
2017-02-27T00:52:08.427Z,1007.41
2017-02-27T00:53:17.311Z,1007.35
2017-02-27T00:54:26.189Z,1007.37
2017-02-27T00:55:35.100Z,1007.37
2017-02-27T00:56:43.991Z,1007.37
2017-02-27T00:57:52.887Z,1007.39
2017-02-27T00:59:01.807Z,1007.38
2017-02-27T01:00:10.702Z,1007.38
2017-02-27T01:01:19.614Z,1007.36
2017-02-27T01:02:28.500Z,1007.37
2017-02-27T01:03:37.386Z,1007.37
2017-02-27T01:04:46.267Z,1007.41
2017-02-27T01:05:55.169Z,1007.34
2017-02-27T01:07:04.046Z,1007.39
2017-02-27T01:08:12.953Z,1007.39
2017-02-27T01:09:21.836Z,1007.33
2017-02-27T01:10:30.731Z,1007.39
2017-02-27T01:11:39.632Z,1007.43
2017-02-27T01:12:48.514Z,1007.34
2017-02-27T01:13:57.813Z,1007.33
2017-02-27T01:15:06.711Z,1007.36
2017-02-27T01:16:15.585Z,1007.36
2017-02-27T01:17:24.497Z,1007.34
2017-02-27T01:18:33.786Z,1007.34
2017-02-27T01:19:42.685Z,1007.34
2017-02-27T01:20:51.562Z,1007.33
2017-02-27T01:22:00.859Z,1007.26
2017-02-27T01:23:09.776Z,1007.3
2017-02-27T01:24:18.672Z,1007.31
2017-02-27T01:25:27.579Z,1007.26
2017-02-27T01:26:36.458Z,1007.27
2017-02-27T01:27:45.342Z,1007.29
2017-02-27T01:28:54.223Z,1007.24
2017-02-27T01:30:03.100Z,1007.26
2017-02-27T01:31:12.011Z,1007.31
2017-02-27T01:32:20.925Z,1007.23
2017-02-27T01:33:29.805Z,1007.21
2017-02-27T01:34:38.689Z,1007.26
2017-02-27T01:53:46.312Z,1007.36
2017-02-27T01:54:55.227Z,1007.35
2017-02-27T01:56:04.137Z,1007.38
2017-02-27T01:57:13.015Z,1007.35
2017-02-27T01:58:21.971Z,1007.36
2017-02-27T01:59:30.875Z,1007.36
2017-02-27T02:00:40.167Z,1007.37
2017-02-27T02:01:49.070Z,1007.37
2017-02-27T02:02:57.997Z,1007.39
2017-02-27T02:04:07.296Z,1007.34
2017-02-27T02:05:16.226Z,1007.37
2017-02-27T02:06:25.111Z,1007.41
2017-02-27T02:07:33.992Z,1007.39
2017-02-27T02:08:43.284Z,1007.4
2017-02-27T02:09:52.250Z,1007.4
2017-02-27T02:11:01.150Z,1007.42
2017-02-27T02:12:10.487Z,1007.39
2017-02-27T02:13:19.405Z,1007.41
2017-02-27T02:14:28.335Z,1007.35
2017-02-27T02:15:37.224Z,1007.35
2017-02-27T02:16:46.118Z,1007.34
2017-02-27T02:17:55.010Z,1007.31
2017-02-27T02:19:03.895Z,1007.31
2017-02-27T02:20:12.787Z,1007.29
2017-02-27T02:21:21.673Z,1007.31
2017-02-27T02:22:30.568Z,1007.26
2017-02-27T02:23:39.459Z,1007.27
2017-02-27T02:24:48.380Z,1007.28
2017-02-27T02:25:57.279Z,1007.21
2017-02-27T02:27:06.161Z,1007.27
2017-02-27T02:28:15.042Z,1007.29
2017-02-27T02:29:23.933Z,1007.26
2017-02-27T02:30:32.821Z,1007.23
2017-02-27T02:31:41.741Z,1007.22
2017-02-27T02:32:51.026Z,1007.21
2017-02-27T02:33:59.951Z,1007.25
2017-02-27T02:35:08.839Z,1007.23
2017-02-27T02:36:17.750Z,1007.24
2017-02-27T02:37:26.683Z,1007.22
2017-02-27T02:38:35.958Z,1007.21
2017-02-27T02:39:45.241Z,1007.19
2017-02-27T02:40:54.156Z,1007.2
2017-02-27T02:42:03.035Z,1007.2
2017-02-27T02:43:11.916Z,1007.27
2017-02-27T02:44:20.801Z,1007.22
2017-02-27T02:45:29.683Z,1007.23
2017-02-27T02:46:38.981Z,1007.18
2017-02-27T02:47:47.892Z,1007.27
2017-02-27T02:48:56.783Z,1007.22
2017-02-27T02:50:05.708Z,1007.2
2017-02-27T02:51:14.591Z,1007.2
2017-02-27T02:52:23.506Z,1007.23
2017-02-27T02:53:32.426Z,1007.19
2017-02-27T02:54:41.309Z,1007.2
2017-02-27T02:55:50.205Z,1007.25
2017-02-27T02:56:59.109Z,1007.25
2017-02-27T02:58:08.018Z,1007.21
2017-02-27T02:59:16.966Z,1007.24
2017-02-27T03:00:26.293Z,1007.21
2017-02-27T03:01:35.196Z,1007.23
2017-02-27T03:02:44.498Z,1007.18
2017-02-27T03:03:53.380Z,1007.18
2017-02-27T03:05:02.272Z,1007.18
2017-02-27T03:06:11.403Z,1007.16
2017-02-27T03:07:20.302Z,1007.13
2017-02-27T03:08:29.191Z,1007.1
2017-02-27T03:09:38.074Z,1007.11
2017-02-27T03:10:46.976Z,1007.09
2017-02-27T03:11:55.878Z,1007.11
2017-02-27T03:13:04.775Z,1007.03
2017-02-27T03:14:13.662Z,1007
2017-02-27T03:15:22.544Z,1007.01
2017-02-27T03:16:31.453Z,1007.04
2017-02-27T03:17:40.348Z,1007
2017-02-27T03:18:49.270Z,1006.94
2017-02-27T03:19:58.171Z,1006.95
2017-02-27T03:21:07.455Z,1006.96
2017-02-27T03:22:16.337Z,1006.96
2017-02-27T03:23:26.438Z,1006.93
2017-02-27T03:24:40.462Z,1006.93
2017-02-27T03:25:51.647Z,1006.94
2017-02-27T03:27:00.570Z,1006.89
2017-02-27T03:28:09.449Z,1006.86
2017-02-27T03:29:18.361Z,1006.9
2017-02-27T03:30:27.249Z,1006.91
2017-02-27T03:31:36.131Z,1006.93
2017-02-27T03:32:45.037Z,1006.9
2017-02-27T03:33:53.925Z,1006.9
2017-02-27T03:35:02.812Z,1006.87
2017-02-27T03:36:11.730Z,1006.85
2017-02-27T03:37:20.639Z,1006.82
2017-02-27T03:38:29.578Z,1006.83
2017-02-27T03:39:38.467Z,1006.82
2017-02-27T03:40:47.380Z,1006.8
2017-02-27T03:41:56.266Z,1006.8
2017-02-27T03:43:05.186Z,1006.73
2017-02-27T03:44:14.099Z,1006.71
2017-02-27T03:45:22.983Z,1006.72
2017-02-27T03:46:32.676Z,1006.75
2017-02-27T03:47:41.585Z,1006.72
2017-02-27T03:48:50.503Z,1006.72
2017-02-27T03:49:59.422Z,1006.7
2017-02-27T03:51:08.722Z,1006.7
2017-02-27T03:52:17.615Z,1006.7
2017-02-27T03:53:26.531Z,1006.69
2017-02-27T03:54:35.428Z,1006.66
2017-02-27T03:55:44.331Z,1006.61
2017-02-27T03:56:53.227Z,1006.67
2017-02-27T03:58:02.117Z,1006.61
2017-02-27T03:59:11.025Z,1006.61
2017-02-27T04:00:19.918Z,1006.61
2017-02-27T04:01:28.827Z,1006.61
2017-02-27T04:02:37.716Z,1006.6
2017-02-27T04:03:46.606Z,1006.59
2017-02-27T04:04:55.494Z,1006.62
2017-02-27T04:06:04.795Z,1006.62
2017-02-27T04:07:13.682Z,1006.64
2017-02-27T04:08:22.575Z,1006.63
2017-02-27T04:09:31.460Z,1006.63
2017-02-27T04:10:40.380Z,1006.63
2017-02-27T04:11:49.300Z,1006.62
2017-02-27T04:12:58.203Z,1006.6
2017-02-27T04:14:07.087Z,1006.57
2017-02-27T04:15:15.991Z,1006.55
2017-02-27T04:16:24.900Z,1006.5
2017-02-27T04:17:33.784Z,1006.44
2017-02-27T04:18:42.685Z,1006.41
2017-02-27T04:19:51.569Z,1006.42
2017-02-27T04:21:00.483Z,1006.4
2017-02-27T04:22:09.378Z,1006.46
2017-02-27T04:23:18.261Z,1006.45
2017-02-27T04:24:27.158Z,1006.49
2017-02-27T04:25:36.053Z,1006.48
2017-02-27T04:26:44.958Z,1006.51
2017-02-27T04:27:53.853Z,1006.47
2017-02-27T04:29:02.731Z,1006.48
2017-02-27T04:30:11.629Z,1006.43
2017-02-27T04:31:20.550Z,1006.45
2017-02-27T04:32:29.841Z,1006.47
2017-02-27T04:33:38.767Z,1006.46
2017-02-27T04:34:47.657Z,1006.42
2017-02-27T04:35:56.542Z,1006.41
2017-02-27T04:37:05.429Z,1006.38
2017-02-27T04:38:14.314Z,1006.39
2017-02-27T04:39:23.632Z,1006.39
2017-02-27T04:40:32.581Z,1006.36
2017-02-27T04:41:41.479Z,1006.34
2017-02-27T04:42:50.776Z,1006.33
2017-02-27T04:43:59.664Z,1006.34
2017-02-27T04:45:08.543Z,1006.31
2017-02-27T04:46:17.458Z,1006.34
2017-02-27T04:47:26.347Z,1006.31
2017-02-27T04:48:35.241Z,1006.29
2017-02-27T04:49:44.168Z,1006.32
2017-02-27T04:50:53.054Z,1006.32
2017-02-27T04:52:01.951Z,1006.28
2017-02-27T04:53:10.840Z,1006.25
2017-02-27T04:54:19.739Z,1006.33
2017-02-27T04:55:28.622Z,1006.32
2017-02-27T04:56:37.505Z,1006.3
2017-02-27T04:57:46.403Z,1006.33
2017-02-27T04:58:55.283Z,1006.33
2017-02-27T05:00:04.579Z,1006.32
2017-02-27T05:01:13.460Z,1006.29
2017-02-27T05:02:22.348Z,1006.28
2017-02-27T05:03:31.236Z,1006.22
2017-02-27T05:04:40.143Z,1006.23
2017-02-27T05:05:49.022Z,1006.2
2017-02-27T05:06:57.911Z,1006.19
2017-02-27T05:08:06.800Z,1006.16
2017-02-27T05:09:15.707Z,1006.09
2017-02-27T05:10:24.597Z,1006.12
2017-02-27T05:11:33.476Z,1006.1
2017-02-27T05:12:42.355Z,1006.11
2017-02-27T05:13:51.252Z,1006.09
2017-02-27T05:15:00.161Z,1006.06
2017-02-27T05:16:09.049Z,1006.04
2017-02-27T05:17:17.932Z,1006.04
2017-02-27T05:18:26.823Z,1006.04
2017-02-27T05:19:35.760Z,1006.06
2017-02-27T05:20:44.645Z,1006.02
2017-02-27T05:21:54.499Z,1006.08
2017-02-27T05:23:03.388Z,1006.06
2017-02-27T05:24:12.268Z,1006.01
2017-02-27T05:25:21.148Z,1006.04
2017-02-27T05:26:30.043Z,1005.96
2017-02-27T05:27:39.356Z,1005.98
2017-02-27T05:28:48.244Z,1005.94
2017-02-27T05:29:57.133Z,1006.01
2017-02-27T05:31:06.010Z,1005.95
2017-02-27T05:32:14.898Z,1005.92
2017-02-27T05:33:24.223Z,1005.93
2017-02-27T05:34:33.530Z,1005.94
2017-02-27T05:35:42.415Z,1005.95
2017-02-27T05:36:51.341Z,1005.96
2017-02-27T05:38:00.228Z,1005.98
2017-02-27T05:39:09.515Z,1006.01
2017-02-27T05:40:18.389Z,1006.02
2017-02-27T05:41:27.291Z,1006.04
2017-02-27T05:42:36.179Z,1006
2017-02-27T05:43:45.064Z,1006.01
2017-02-27T05:44:53.945Z,1005.98
2017-02-27T05:46:02.831Z,1005.96
2017-02-27T05:47:11.716Z,1005.96
2017-02-27T05:48:20.610Z,1005.95
2017-02-27T05:49:29.901Z,1005.95
2017-02-27T05:50:38.790Z,1005.92
2017-02-27T05:51:47.667Z,1005.91
2017-02-27T05:52:56.551Z,1005.91
2017-02-27T05:54:05.480Z,1005.91
2017-02-27T05:55:14.390Z,1005.95
2017-02-27T05:56:23.279Z,1005.92
2017-02-27T05:57:32.180Z,1005.94
2017-02-27T05:58:41.070Z,1005.96
2017-02-27T05:59:49.978Z,1005.95
2017-02-27T06:00:58.861Z,1005.97
2017-02-27T06:02:08.155Z,1006
2017-02-27T06:03:17.460Z,1005.98
2017-02-27T06:04:26.346Z,1005.95
2017-02-27T06:05:35.233Z,1005.97
2017-02-27T06:06:44.531Z,1005.98
2017-02-27T06:07:53.431Z,1005.95
2017-02-27T06:09:02.316Z,1005.96
2017-02-27T06:10:11.212Z,1005.96
2017-02-27T06:11:20.112Z,1005.92
2017-02-27T06:12:28.989Z,1005.92
2017-02-27T06:13:37.864Z,1005.92
2017-02-27T06:14:46.740Z,1005.9
2017-02-27T06:15:55.650Z,1005.92
2017-02-27T06:17:04.564Z,1005.89
2017-02-27T06:18:13.458Z,1005.87
2017-02-27T06:19:22.756Z,1005.86
2017-02-27T06:20:31.647Z,1005.82
2017-02-27T06:21:40.547Z,1005.88
2017-02-27T06:22:49.430Z,1005.78
2017-02-27T06:23:58.308Z,1005.79
2017-02-27T06:25:07.243Z,1005.79
2017-02-27T06:26:16.129Z,1005.79
2017-02-27T06:27:25.068Z,1005.79
2017-02-27T06:28:33.948Z,1005.77
2017-02-27T06:29:42.846Z,1005.77
2017-02-27T06:30:51.733Z,1005.75
2017-02-27T06:32:00.628Z,1005.75
2017-02-27T06:33:09.546Z,1005.76
2017-02-27T06:34:18.424Z,1005.77
2017-02-27T06:35:27.314Z,1005.8
2017-02-27T06:36:36.189Z,1005.8
2017-02-27T06:37:45.067Z,1005.75
2017-02-27T06:38:53.964Z,1005.75
2017-02-27T06:40:02.862Z,1005.76
2017-02-27T06:41:11.772Z,1005.74
2017-02-27T06:42:20.652Z,1005.71
2017-02-27T06:43:29.557Z,1005.73
2017-02-27T06:44:38.434Z,1005.69
2017-02-27T06:45:47.352Z,1005.68
2017-02-27T06:46:56.264Z,1005.7
2017-02-27T06:48:05.144Z,1005.67
2017-02-27T06:49:14.057Z,1005.66
2017-02-27T06:50:23.340Z,1005.6
2017-02-27T06:51:32.235Z,1005.65
2017-02-27T06:52:41.131Z,1005.59
2017-02-27T06:53:50.014Z,1005.58
2017-02-27T06:54:58.898Z,1005.61
2017-02-27T06:56:07.783Z,1005.57
2017-02-27T06:57:17.083Z,1005.61
2017-02-27T06:58:25.995Z,1005.6
2017-02-27T06:59:35.303Z,1005.63
2017-02-27T07:00:44.218Z,1005.65
2017-02-27T07:01:53.137Z,1005.67
2017-02-27T07:03:02.457Z,1005.64
2017-02-27T07:04:11.413Z,1005.63
2017-02-27T07:05:20.636Z,1005.59
2017-02-27T07:06:29.552Z,1005.62
2017-02-27T07:07:38.446Z,1005.64
2017-02-27T07:08:47.349Z,1005.65
2017-02-27T07:09:56.242Z,1005.68
2017-02-27T07:11:05.457Z,1005.65
2017-02-27T07:12:14.390Z,1005.64
2017-02-27T07:13:23.286Z,1005.65
2017-02-27T07:14:32.179Z,1005.61
2017-02-27T07:15:41.111Z,1005.6
2017-02-27T07:16:50.008Z,1005.65
2017-02-27T07:17:59.321Z,1005.58
2017-02-27T07:19:08.248Z,1005.58
2017-02-27T07:20:17.155Z,1005.6
2017-02-27T07:21:26.452Z,1005.57
2017-02-27T07:22:35.331Z,1005.57
2017-02-27T07:23:44.249Z,1005.61
2017-02-27T07:24:53.147Z,1005.6
2017-02-27T07:26:02.021Z,1005.61
2017-02-27T07:27:10.950Z,1005.6
2017-02-27T07:28:19.860Z,1005.59
2017-02-27T07:29:28.788Z,1005.6
2017-02-27T07:30:38.077Z,1005.59
2017-02-27T07:31:46.983Z,1005.57
2017-02-27T07:32:55.868Z,1005.54
2017-02-27T07:34:05.187Z,1005.57
2017-02-27T07:35:14.076Z,1005.52
2017-02-27T07:36:22.987Z,1005.5
2017-02-27T07:37:31.917Z,1005.49
2017-02-27T07:38:40.797Z,1005.49
2017-02-27T07:39:49.723Z,1005.49
2017-02-27T07:40:58.612Z,1005.48
2017-02-27T07:42:07.908Z,1005.45
2017-02-27T07:43:16.788Z,1005.45
2017-02-27T07:44:25.692Z,1005.48
2017-02-27T07:45:34.580Z,1005.48
2017-02-27T07:46:43.869Z,1005.45
2017-02-27T07:47:52.787Z,1005.44
2017-02-27T07:49:02.089Z,1005.46
2017-02-27T07:50:11.001Z,1005.44
2017-02-27T07:51:19.932Z,1005.42
2017-02-27T07:52:28.865Z,1005.41
2017-02-27T07:53:37.792Z,1005.43
2017-02-27T07:54:47.093Z,1005.44
2017-02-27T07:55:55.979Z,1005.42
2017-02-27T07:57:05.290Z,1005.4
2017-02-27T07:58:14.215Z,1005.44
2017-02-27T07:59:23.136Z,1005.41
2017-02-27T08:00:32.019Z,1005.43
2017-02-27T08:01:40.943Z,1005.38
2017-02-27T08:02:49.859Z,1005.37
2017-02-27T08:03:58.751Z,1005.37
2017-02-27T08:05:07.657Z,1005.37
2017-02-27T08:06:16.595Z,1005.33
2017-02-27T08:07:25.511Z,1005.31
2017-02-27T08:08:34.444Z,1005.34
2017-02-27T08:09:43.337Z,1005.33
2017-02-27T08:10:52.217Z,1005.26
2017-02-27T08:12:01.112Z,1005.3
2017-02-27T08:13:10.055Z,1005.28
2017-02-27T08:14:18.967Z,1005.25
2017-02-27T08:15:27.848Z,1005.21
2017-02-27T08:16:37.153Z,1005.22
2017-02-27T08:17:46.085Z,1005.22
2017-02-27T08:18:54.973Z,1005.18
2017-02-27T08:20:03.910Z,1005.18
2017-02-27T08:21:12.835Z,1005.17
2017-02-27T08:22:21.719Z,1005.16
2017-02-27T08:23:30.637Z,1005.15
2017-02-27T08:24:39.557Z,1005.13
2017-02-27T08:25:48.435Z,1005.13
2017-02-27T08:26:57.377Z,1005.07
2017-02-27T08:28:06.268Z,1005.03
2017-02-27T08:29:15.158Z,1005.04
2017-02-27T08:30:24.038Z,1004.98
2017-02-27T08:31:32.928Z,1005.02
2017-02-27T08:32:42.225Z,1005
2017-02-27T08:33:51.140Z,1004.97
2017-02-27T08:35:00.020Z,1005
2017-02-27T08:36:08.933Z,1005.01
2017-02-27T08:37:17.810Z,1004.98
2017-02-27T08:38:26.700Z,1004.97
2017-02-27T08:39:35.594Z,1005.02
2017-02-27T08:40:44.544Z,1004.98
2017-02-27T08:41:53.441Z,1004.93
2017-02-27T08:43:02.359Z,1004.94
2017-02-27T08:44:11.268Z,1004.9
2017-02-27T08:45:20.153Z,1004.94
2017-02-27T08:46:29.049Z,1004.89
2017-02-27T08:47:37.952Z,1004.9
2017-02-27T08:48:46.836Z,1004.92
2017-02-27T08:49:55.774Z,1004.85
2017-02-27T08:51:05.064Z,1004.89
2017-02-27T08:52:14.002Z,1004.93
2017-02-27T08:53:23.286Z,1004.86
2017-02-27T08:54:32.620Z,1004.85
2017-02-27T08:55:41.552Z,1004.84
2017-02-27T08:56:50.458Z,1004.83
2017-02-27T08:57:59.345Z,1004.79
2017-02-27T08:59:08.252Z,1004.82
2017-02-27T09:00:17.138Z,1004.87
2017-02-27T09:01:26.022Z,1004.8
2017-02-27T09:02:34.928Z,1004.78
2017-02-27T09:03:44.243Z,1004.75
2017-02-27T09:04:53.126Z,1004.73
2017-02-27T09:06:02.415Z,1004.7
2017-02-27T09:07:11.311Z,1004.73
2017-02-27T09:08:20.671Z,1004.69
2017-02-27T09:09:29.599Z,1004.65
2017-02-27T09:10:38.505Z,1004.62
2017-02-27T09:11:47.415Z,1004.6
2017-02-27T09:12:56.289Z,1004.59
2017-02-27T09:14:05.188Z,1004.58
2017-02-27T09:15:14.095Z,1004.52
2017-02-27T09:16:22.982Z,1004.48
2017-02-27T09:17:31.871Z,1004.53
2017-02-27T09:18:40.803Z,1004.48
2017-02-27T09:19:49.683Z,1004.48
2017-02-27T09:20:58.577Z,1004.49
2017-02-27T09:22:07.494Z,1004.54
2017-02-27T09:23:16.410Z,1004.44
2017-02-27T09:24:25.307Z,1004.44
2017-02-27T09:25:34.209Z,1004.42
2017-02-27T09:26:43.128Z,1004.42
2017-02-27T09:27:52.032Z,1004.44
2017-02-27T09:29:00.931Z,1004.45
2017-02-27T09:30:09.826Z,1004.39
2017-02-27T09:31:19.123Z,1004.32
2017-02-27T09:32:28.450Z,1004.44
2017-02-27T09:33:37.335Z,1004.33
2017-02-27T09:34:46.216Z,1004.36
2017-02-27T09:35:55.111Z,1004.35
2017-02-27T09:37:04.008Z,1004.34
2017-02-27T09:38:13.323Z,1004.26
2017-02-27T09:39:22.219Z,1004.26
2017-02-27T09:40:31.148Z,1004.28
2017-02-27T09:41:40.485Z,1004.27
2017-02-27T09:42:49.412Z,1004.25
2017-02-27T09:43:58.291Z,1004.31
2017-02-27T09:45:07.170Z,1004.29
2017-02-27T09:46:16.052Z,1004.28
2017-02-27T09:47:24.942Z,1004.22
2017-02-27T09:48:33.850Z,1004.22
2017-02-27T09:49:42.768Z,1004.25
2017-02-27T09:50:51.657Z,1004.18
2017-02-27T09:52:00.954Z,1004.16
2017-02-27T09:53:09.837Z,1004.17
2017-02-27T09:54:18.733Z,1004.15
2017-02-27T09:55:27.612Z,1004.18
2017-02-27T09:56:36.529Z,1004.22
2017-02-27T09:57:45.452Z,1004.2
2017-02-27T09:58:54.345Z,1004.13
2017-02-27T10:00:03.230Z,1004.14
2017-02-27T10:01:12.157Z,1004.11
2017-02-27T10:02:21.459Z,1004.09
2017-02-27T10:03:30.358Z,1004.09
2017-02-27T10:04:39.285Z,1004.02
2017-02-27T10:05:48.218Z,1004.07
2017-02-27T10:06:57.133Z,1004.08
2017-02-27T10:08:06.034Z,1004.06
2017-02-27T10:09:14.912Z,1004.08
2017-02-27T10:10:23.803Z,1004.07
2017-02-27T10:11:32.694Z,1004.07
2017-02-27T10:12:41.619Z,1004.05
2017-02-27T10:13:50.528Z,1004.05
2017-02-27T10:14:59.438Z,1004.05
2017-02-27T10:16:08.758Z,1004.04
2017-02-27T10:17:17.683Z,1004.02
2017-02-27T10:18:26.568Z,1004.03
2017-02-27T10:19:35.448Z,1004.04
2017-02-27T10:20:44.733Z,1004.01
2017-02-27T10:21:53.638Z,1003.99
2017-02-27T10:23:02.547Z,1003.99
2017-02-27T10:24:11.434Z,1003.95
2017-02-27T10:25:20.338Z,1003.86
2017-02-27T10:26:29.630Z,1003.83
2017-02-27T10:27:38.518Z,1003.86
2017-02-27T10:28:47.409Z,1003.8
2017-02-27T10:29:56.331Z,1003.83
2017-02-27T10:31:05.250Z,1003.81
2017-02-27T10:32:14.165Z,1003.83
2017-02-27T10:33:23.049Z,1003.71
2017-02-27T10:34:31.953Z,1003.77
2017-02-27T10:35:40.875Z,1003.67
2017-02-27T10:36:49.755Z,1003.68
2017-02-27T10:37:58.644Z,1003.68
2017-02-27T10:39:07.538Z,1003.63
2017-02-27T10:40:16.432Z,1003.64
2017-02-27T10:41:25.326Z,1003.59
2017-02-27T10:42:34.617Z,1003.61
2017-02-27T10:43:43.518Z,1003.55
2017-02-27T10:44:52.438Z,1003.46
2017-02-27T10:46:01.344Z,1003.5
2017-02-27T10:47:10.235Z,1003.53
2017-02-27T10:48:19.136Z,1003.52
2017-02-27T10:49:28.020Z,1003.45
2017-02-27T10:50:36.900Z,1003.47
2017-02-27T10:51:45.829Z,1003.47
2017-02-27T10:52:54.734Z,1003.39
2017-02-27T10:54:03.621Z,1003.47
2017-02-27T10:55:12.519Z,1003.43
2017-02-27T10:56:21.824Z,1003.42
2017-02-27T10:57:30.705Z,1003.46
2017-02-27T10:58:39.631Z,1003.52
2017-02-27T10:59:48.531Z,1003.45
2017-02-27T11:00:57.451Z,1003.37
2017-02-27T11:02:06.356Z,1003.43
2017-02-27T11:03:15.271Z,1003.37
2017-02-27T11:04:24.179Z,1003.35
2017-02-27T11:05:33.085Z,1003.32
2017-02-27T11:06:41.980Z,1003.37
2017-02-27T11:07:50.881Z,1003.34
2017-02-27T11:08:59.766Z,1003.29
2017-02-27T11:10:08.684Z,1003.34
2017-02-27T11:11:17.586Z,1003.31
2017-02-27T11:12:26.511Z,1003.26
2017-02-27T11:13:35.802Z,1003.27
2017-02-27T11:14:45.108Z,1003.23
2017-02-27T11:15:54.021Z,1003.23
2017-02-27T11:17:02.907Z,1003.18
2017-02-27T11:18:11.814Z,1003.16
2017-02-27T11:19:20.701Z,1003.15
2017-02-27T11:20:29.611Z,1003.13
2017-02-27T11:21:38.510Z,1003.13
2017-02-27T11:22:47.437Z,1003.04
2017-02-27T11:23:56.745Z,1003.07
2017-02-27T11:25:05.646Z,1003.1
2017-02-27T11:26:14.560Z,1003.05
2017-02-27T11:27:23.504Z,1003.01
2017-02-27T11:28:32.422Z,1003
2017-02-27T11:29:41.339Z,1002.93
2017-02-27T11:30:50.253Z,1002.94
2017-02-27T11:31:59.133Z,1002.97
2017-02-27T11:33:08.016Z,1002.92
2017-02-27T11:34:16.895Z,1002.82
2017-02-27T11:35:26.496Z,1002.85
2017-02-27T11:36:35.378Z,1002.82
2017-02-27T11:37:44.275Z,1002.8
2017-02-27T11:38:53.562Z,1002.73
2017-02-27T11:40:02.511Z,1002.75
2017-02-27T11:41:11.424Z,1002.66
2017-02-27T11:42:20.303Z,1002.66
2017-02-27T11:43:29.213Z,1002.7
2017-02-27T11:44:38.111Z,1002.65
2017-02-27T11:45:47.001Z,1002.6
2017-02-27T11:46:55.898Z,1002.58
2017-02-27T11:48:04.793Z,1002.56
2017-02-27T11:49:13.690Z,1002.52
2017-02-27T11:50:22.590Z,1002.53
2017-02-27T11:51:31.872Z,1002.56
2017-02-27T11:52:40.749Z,1002.54
2017-02-27T11:53:49.634Z,1002.52
2017-02-27T11:54:58.522Z,1002.45
2017-02-27T11:56:07.849Z,1002.48
2017-02-27T11:57:16.763Z,1002.48
2017-02-27T11:58:25.660Z,1002.41
2017-02-27T11:59:34.588Z,1002.39
2017-02-27T12:00:43.531Z,1002.34
2017-02-27T12:01:52.826Z,1002.41
2017-02-27T12:03:02.151Z,1002.42
2017-02-27T12:04:11.445Z,1002.34
2017-02-27T12:05:20.325Z,1002.39
2017-02-27T12:06:29.233Z,1002.33
2017-02-27T12:07:38.115Z,1002.27
2017-02-27T12:08:47.039Z,1002.26
2017-02-27T12:09:55.958Z,1002.32
2017-02-27T12:11:05.274Z,1002.2
2017-02-27T12:12:14.188Z,1002.22
2017-02-27T12:13:23.091Z,1002.2
2017-02-27T12:14:31.974Z,1002.13
2017-02-27T12:15:40.868Z,1002.08
2017-02-27T12:16:49.740Z,1002.03
2017-02-27T12:17:58.627Z,1002.1
2017-02-27T12:19:07.519Z,1002
2017-02-27T12:20:16.833Z,1002.03
2017-02-27T12:21:25.739Z,1002.06
2017-02-27T12:22:34.658Z,1001.97
2017-02-27T12:23:43.535Z,1002
2017-02-27T12:24:52.421Z,1001.9
2017-02-27T12:26:01.356Z,1001.86
2017-02-27T12:27:10.286Z,1001.84
2017-02-27T12:28:19.189Z,1001.86
2017-02-27T12:29:28.110Z,1001.8
2017-02-27T12:30:37.011Z,1001.76
2017-02-27T12:31:45.891Z,1001.72
2017-02-27T12:32:54.785Z,1001.66
2017-02-27T12:34:04.079Z,1001.62
2017-02-27T12:35:12.979Z,1001.59
2017-02-27T12:36:21.879Z,1001.58
2017-02-27T12:37:30.767Z,1001.64
2017-02-27T12:38:39.675Z,1001.63
2017-02-27T12:39:48.976Z,1001.64
2017-02-27T12:40:57.852Z,1001.61
2017-02-27T12:42:06.750Z,1001.51
2017-02-27T12:43:15.636Z,1001.55
2017-02-27T12:44:24.532Z,1001.53
2017-02-27T12:45:33.437Z,1001.49
2017-02-27T12:46:42.323Z,1001.47
2017-02-27T12:47:51.231Z,1001.48
2017-02-27T12:49:00.523Z,1001.47
2017-02-27T12:50:09.408Z,1001.43
2017-02-27T12:51:18.334Z,1001.41
2017-02-27T12:52:27.212Z,1001.44
2017-02-27T12:53:36.122Z,1001.47
2017-02-27T12:54:45.022Z,1001.47
2017-02-27T12:55:54.354Z,1001.39
2017-02-27T12:57:03.266Z,1001.36
2017-02-27T12:58:12.171Z,1001.36
2017-02-27T12:59:21.111Z,1001.25
2017-02-27T13:00:29.999Z,1001.3
2017-02-27T13:01:38.885Z,1001.2
2017-02-27T13:02:47.776Z,1001.19
2017-02-27T13:03:56.662Z,1001.22
2017-02-27T13:05:05.551Z,1001.14
2017-02-27T13:06:14.843Z,1001.13
2017-02-27T13:07:23.729Z,1001.12
2017-02-27T13:08:32.630Z,1001.1
2017-02-27T13:09:41.511Z,1001.04
2017-02-27T13:10:50.412Z,1001
2017-02-27T13:11:59.309Z,1000.9
2017-02-27T13:13:08.209Z,1000.84
2017-02-27T13:14:17.105Z,1000.87
2017-02-27T13:15:26.036Z,1000.92
2017-02-27T13:16:34.966Z,1000.81
2017-02-27T13:17:43.857Z,1000.77
2017-02-27T13:18:52.784Z,1000.74
2017-02-27T13:20:02.079Z,1000.8
2017-02-27T13:21:10.996Z,1000.73
2017-02-27T13:22:19.883Z,1000.66
2017-02-27T13:23:28.826Z,1000.63
2017-02-27T13:24:37.729Z,1000.52
2017-02-27T13:25:47.032Z,1000.63
2017-02-27T13:26:55.929Z,1000.53
2017-02-27T13:28:04.814Z,1000.52
2017-02-27T13:29:13.739Z,1000.49
2017-02-27T13:30:22.621Z,1000.46
2017-02-27T13:31:31.936Z,1000.45
2017-02-27T13:32:40.843Z,1000.42
2017-02-27T13:33:49.772Z,1000.42
2017-02-27T13:34:58.686Z,1000.36
2017-02-27T13:36:07.876Z,1000.3
2017-02-27T13:37:16.763Z,1000.31
2017-02-27T13:38:25.641Z,1000.28
2017-02-27T13:39:34.546Z,1000.29
2017-02-27T13:40:43.460Z,1000.24
2017-02-27T13:41:52.386Z,1000.22
2017-02-27T13:43:01.286Z,1000.13
2017-02-27T13:44:10.595Z,1000.09
2017-02-27T13:45:19.482Z,1000.05
2017-02-27T13:46:28.378Z,1000.07
2017-02-27T13:47:37.263Z,1000.1
2017-02-27T13:48:46.144Z,999.93
2017-02-27T13:49:55.041Z,999.9
2017-02-27T13:51:03.937Z,999.91
2017-02-27T13:52:12.827Z,999.84
2017-02-27T13:53:21.772Z,999.76
2017-02-27T13:54:31.081Z,999.74
2017-02-27T13:55:39.978Z,999.69
2017-02-27T13:56:49.292Z,999.63
2017-02-27T13:57:58.195Z,999.6
2017-02-27T13:59:07.113Z,999.55
2017-02-27T14:00:16.031Z,999.58
2017-02-27T14:01:24.954Z,999.61
2017-02-27T14:02:33.837Z,999.64
2017-02-27T14:03:42.720Z,999.7
2017-02-27T14:04:51.633Z,999.6
2017-02-27T14:06:00.564Z,999.58
2017-02-27T14:07:09.457Z,999.54
2017-02-27T14:08:18.364Z,999.56
2017-02-27T14:09:27.278Z,999.59
2017-02-27T14:10:36.166Z,999.5
2017-02-27T14:11:45.059Z,999.47
2017-02-27T14:12:53.949Z,999.47
2017-02-27T14:14:02.836Z,999.34
2017-02-27T14:15:11.741Z,999.37
2017-02-27T14:16:20.623Z,999.37